sensor_id;sensor_type;location;lat;lon;timestamp;pressure;altitude;pressure_sealevel;temperature;humidity
2397;BME280;1209;48.410;9.054;2023-04-15T00:00:38;95258.59;;;4.39;100.00
2397;BME280;1209;48.410;9.054;2023-04-15T00:03:03;95255.16;;;4.06;100.00
2397;BME280;1209;48.410;9.054;2023-04-15T00:05:29;95257.44;;;4.09;100.00
2397;BME280;1209;48.410;9.054;2023-04-15T00:07:55;95254.06;;;4.33;100.00
2397;BME280;1209;48.410;9.054;2023-04-15T00:10:21;95252.09;;;4.11;100.00
2397;BME280;1209;48.410;9.054;2023-04-15T00:12:46;95253.06;;;4.10;100.00
2397;BME280;1209;48.410;9.054;2023-04-15T00:15:11;95257.63;;;4.32;100.00
2397;BME280;1209;48.410;9.054;2023-04-15T00:17:37;95258.75;;;4.46;100.00
2397;BME280;1209;48.410;9.054;2023-04-15T00:20:04;95251.47;;;4.58;100.00
2397;BME280;1209;48.410;9.054;2023-04-15T00:22:31;95244.69;;;4.57;100.00
2397;BME280;1209;48.410;9.054;2023-04-15T00:24:56;95254.53;;;4.61;100.00
2397;BME280;1209;48.410;9.054;2023-04-15T00:27:22;95255.97;;;4.07;100.00
2397;BME280;1209;48.410;9.054;2023-04-15T00:29:47;95248.41;;;4.30;100.00
2397;BME280;1209;48.410;9.054;2023-04-15T00:32:12;95252.59;;;4.15;100.00
2397;BME280;1209;48.410;9.054;2023-04-15T00:34:37;95245.16;;;4.20;100.00
2397;BME280;1209;48.410;9.054;2023-04-15T00:37:03;95251.94;;;4.21;100.00
2397;BME280;1209;48.410;9.054;2023-04-15T00:39:28;95246.00;;;4.28;100.00
2397;BME280;1209;48.410;9.054;2023-04-15T00:41:54;95247.41;;;4.23;100.00
2397;BME280;1209;48.410;9.054;2023-04-15T00:44:20;95246.97;;;4.35;100.00
2397;BME280;1209;48.410;9.054;2023-04-15T00:46:46;95252.78;;;4.37;100.00
2397;BME280;1209;48.410;9.054;2023-04-15T00:49:12;95253.25;;;4.41;100.00
2397;BME280;1209;48.410;9.054;2023-04-15T00:51:38;95248.41;;;4.38;100.00
2397;BME280;1209;48.410;9.054;2023-04-15T00:54:04;95254.41;;;4.38;100.00
2397;BME280;1209;48.410;9.054;2023-04-15T00:56:30;95248.22;;;4.23;100.00
2397;BME280;1209;48.410;9.054;2023-04-15T00:58:59;95251.78;;;4.14;100.00
2397;BME280;1209;48.410;9.054;2023-04-15T01:01:25;95250.50;;;4.10;100.00
2397;BME280;1209;48.410;9.054;2023-04-15T01:03:51;95247.25;;;4.24;100.00
2397;BME280;1209;48.410;9.054;2023-04-15T01:06:17;95256.47;;;4.19;100.00
2397;BME280;1209;48.410;9.054;2023-04-15T01:08:43;95249.53;;;4.11;100.00
2397;BME280;1209;48.410;9.054;2023-04-15T01:11:09;95254.69;;;4.19;100.00
2397;BME280;1209;48.410;9.054;2023-04-15T01:13:36;95245.47;;;4.17;100.00
2397;BME280;1209;48.410;9.054;2023-04-15T01:16:02;95247.75;;;4.20;100.00
2397;BME280;1209;48.410;9.054;2023-04-15T01:18:28;95245.97;;;4.12;100.00
2397;BME280;1209;48.410;9.054;2023-04-15T01:20:54;95252.75;;;4.21;100.00
2397;BME280;1209;48.410;9.054;2023-04-15T01:23:23;95252.44;;;4.24;100.00
2397;BME280;1209;48.410;9.054;2023-04-15T01:25:49;95244.34;;;4.03;100.00
2397;BME280;1209;48.410;9.054;2023-04-15T01:28:15;95246.28;;;4.09;100.00
2397;BME280;1209;48.410;9.054;2023-04-15T01:30:41;95251.13;;;4.20;100.00
2397;BME280;1209;48.410;9.054;2023-04-15T01:33:07;95249.72;;;4.26;100.00
2397;BME280;1209;48.410;9.054;2023-04-15T01:35:32;95255.00;;;4.16;100.00
2397;BME280;1209;48.410;9.054;2023-04-15T01:38:04;95252.25;;;4.01;100.00
2397;BME280;1209;48.410;9.054;2023-04-15T01:40:30;95247.72;;;3.87;100.00
2397;BME280;1209;48.410;9.054;2023-04-15T01:42:56;95244.66;;;3.92;100.00
2397;BME280;1209;48.410;9.054;2023-04-15T01:45:21;95243.38;;;3.96;100.00
2397;BME280;1209;48.410;9.054;2023-04-15T01:47:47;95247.72;;;3.87;100.00
2397;BME280;1209;48.410;9.054;2023-04-15T01:50:13;95239.81;;;3.89;100.00
2397;BME280;1209;48.410;9.054;2023-04-15T01:52:39;95236.41;;;3.88;100.00
2397;BME280;1209;48.410;9.054;2023-04-15T01:55:05;95240.56;;;3.73;100.00
2397;BME280;1209;48.410;9.054;2023-04-15T01:57:32;95238.66;;;3.83;100.00
2397;BME280;1209;48.410;9.054;2023-04-15T01:59:57;95240.91;;;3.78;100.00
2397;BME280;1209;48.410;9.054;2023-04-15T02:02:22;95235.09;;;3.76;100.00
2397;BME280;1209;48.410;9.054;2023-04-15T02:04:48;95243.63;;;3.76;100.00
2397;BME280;1209;48.410;9.054;2023-04-15T02:07:13;95234.50;;;3.90;100.00
2397;BME280;1209;48.410;9.054;2023-04-15T02:09:38;95228.19;;;3.85;100.00
2397;BME280;1209;48.410;9.054;2023-04-15T02:12:04;95231.84;;;3.66;100.00
2397;BME280;1209;48.410;9.054;2023-04-15T02:14:29;95231.47;;;3.53;100.00
2397;BME280;1209;48.410;9.054;2023-04-15T02:16:55;95227.59;;;3.48;100.00
2397;BME280;1209;48.410;9.054;2023-04-15T02:19:21;95234.69;;;3.46;100.00
2397;BME280;1209;48.410;9.054;2023-04-15T02:21:46;95236.50;;;3.54;100.00
2397;BME280;1209;48.410;9.054;2023-04-15T02:24:11;95244.03;;;3.39;100.00
2397;BME280;1209;48.410;9.054;2023-04-15T02:26:36;95236.13;;;3.41;100.00
2397;BME280;1209;48.410;9.054;2023-04-15T02:29:02;95237.59;;;3.43;100.00
2397;BME280;1209;48.410;9.054;2023-04-15T02:31:28;95230.72;;;3.26;100.00
2397;BME280;1209;48.410;9.054;2023-04-15T02:33:53;95230.41;;;3.29;100.00
2397;BME280;1209;48.410;9.054;2023-04-15T02:36:18;95236.09;;;3.33;100.00
2397;BME280;1209;48.410;9.054;2023-04-15T02:38:45;95241.44;;;3.39;100.00
2397;BME280;1209;48.410;9.054;2023-04-15T02:41:10;95237.19;;;3.30;100.00
2397;BME280;1209;48.410;9.054;2023-04-15T02:43:36;95246.59;;;3.39;100.00
2397;BME280;1209;48.410;9.054;2023-04-15T02:46:04;95249.97;;;3.32;100.00
2397;BME280;1209;48.410;9.054;2023-04-15T02:48:29;95243.31;;;3.29;100.00
2397;BME280;1209;48.410;9.054;2023-04-15T02:51:13;95244.03;;;3.39;100.00
2397;BME280;1209;48.410;9.054;2023-04-15T02:53:38;95243.25;;;3.47;100.00
2397;BME280;1209;48.410;9.054;2023-04-15T02:56:04;95247.25;;;3.41;100.00
2397;BME280;1209;48.410;9.054;2023-04-15T02:58:30;95241.59;;;3.38;100.00
2397;BME280;1209;48.410;9.054;2023-04-15T03:00:55;95242.34;;;3.30;100.00
2397;BME280;1209;48.410;9.054;2023-04-15T03:03:21;95243.69;;;3.34;100.00
2397;BME280;1209;48.410;9.054;2023-04-15T03:05:46;95248.63;;;3.28;100.00
2397;BME280;1209;48.410;9.054;2023-04-15T03:08:12;95249.28;;;3.30;100.00
2397;BME280;1209;48.410;9.054;2023-04-15T03:10:38;95249.59;;;3.27;100.00
2397;BME280;1209;48.410;9.054;2023-04-15T03:13:04;95246.63;;;3.13;100.00
2397;BME280;1209;48.410;9.054;2023-04-15T03:15:29;95244.06;;;3.13;100.00
2397;BME280;1209;48.410;9.054;2023-04-15T03:17:54;95244.06;;;3.13;100.00
2397;BME280;1209;48.410;9.054;2023-04-15T03:20:20;95251.81;;;3.22;100.00
2397;BME280;1209;48.410;9.054;2023-04-15T03:22:45;95249.91;;;3.24;100.00
2397;BME280;1209;48.410;9.054;2023-04-15T03:25:11;95246.97;;;3.19;100.00
2397;BME280;1209;48.410;9.054;2023-04-15T03:27:37;95253.88;;;3.10;100.00
2397;BME280;1209;48.410;9.054;2023-04-15T03:30:02;95246.75;;;2.78;100.00
2397;BME280;1209;48.410;9.054;2023-04-15T03:32:27;95249.09;;;2.89;100.00
2397;BME280;1209;48.410;9.054;2023-04-15T03:34:53;95248.78;;;2.92;100.00
2397;BME280;1209;48.410;9.054;2023-04-15T03:37:18;95247.84;;;2.93;100.00
2397;BME280;1209;48.410;9.054;2023-04-15T03:39:43;95245.28;;;3.01;100.00
2397;BME280;1209;48.410;9.054;2023-04-15T03:42:09;95252.69;;;2.96;100.00
2397;BME280;1209;48.410;9.054;2023-04-15T03:44:34;95248.69;;;2.76;100.00
2397;BME280;1209;48.410;9.054;2023-04-15T03:46:59;95241.59;;;2.78;100.00
2397;BME280;1209;48.410;9.054;2023-04-15T03:49:24;95236.59;;;2.76;100.00
2397;BME280;1209;48.410;9.054;2023-04-15T03:51:50;95236.03;;;2.65;100.00
2397;BME280;1209;48.410;9.054;2023-04-15T03:54:15;95239.28;;;2.67;100.00
2397;BME280;1209;48.410;9.054;2023-04-15T03:56:40;95236.09;;;2.73;100.00
2397;BME280;1209;48.410;9.054;2023-04-15T03:59:06;95226.59;;;2.47;100.00
2397;BME280;1209;48.410;9.054;2023-04-15T04:01:31;95221.75;;;2.44;100.00
2397;BME280;1209;48.410;9.054;2023-04-15T04:03:56;95234.69;;;2.35;100.00
2397;BME280;1209;48.410;9.054;2023-04-15T04:06:22;95228.97;;;2.23;100.00
2397;BME280;1209;48.410;9.054;2023-04-15T04:08:47;95228.22;;;2.48;100.00
2397;BME280;1209;48.410;9.054;2023-04-15T04:11:12;95236.03;;;2.65;100.00
2397;BME280;1209;48.410;9.054;2023-04-15T04:13:38;95225.44;;;2.68;100.00
2397;BME280;1209;48.410;9.054;2023-04-15T04:16:04;95228.06;;;2.76;100.00
2397;BME280;1209;48.410;9.054;2023-04-15T04:18:31;95240.28;;;2.74;100.00
2397;BME280;1209;48.410;9.054;2023-04-15T04:20:56;95232.00;;;2.62;100.00
2397;BME280;1209;48.410;9.054;2023-04-15T04:23:22;95245.28;;;2.49;100.00
2397;BME280;1209;48.410;9.054;2023-04-15T04:25:47;95237.75;;;2.56;100.00
2397;BME280;1209;48.410;9.054;2023-04-15T04:28:12;95246.63;;;2.36;100.00
2397;BME280;1209;48.410;9.054;2023-04-15T04:30:38;95246.25;;;2.48;100.00
2397;BME280;1209;48.410;9.054;2023-04-15T04:33:03;95246.34;;;2.39;100.00
2397;BME280;1209;48.410;9.054;2023-04-15T04:35:29;95244.13;;;2.44;100.00
2397;BME280;1209;48.410;9.054;2023-04-15T04:37:54;95249.81;;;2.12;100.00
2397;BME280;1209;48.410;9.054;2023-04-15T04:40:20;95248.41;;;2.17;100.00
2397;BME280;1209;48.410;9.054;2023-04-15T04:42:45;95255.69;;;2.22;100.00
2397;BME280;1209;48.410;9.054;2023-04-15T04:45:10;95247.22;;;2.30;100.00
2397;BME280;1209;48.410;9.054;2023-04-15T04:47:36;95255.59;;;2.32;100.00
2397;BME280;1209;48.410;9.054;2023-04-15T04:50:01;95243.97;;;2.28;100.00
2397;BME280;1209;48.410;9.054;2023-04-15T04:52:27;95247.22;;;2.47;100.00
2397;BME280;1209;48.410;9.054;2023-04-15T04:54:52;95250.28;;;2.51;100.00
2397;BME280;1209;48.410;9.054;2023-04-15T04:57:18;95250.34;;;2.59;100.00
2397;BME280;1209;48.410;9.054;2023-04-15T04:59:43;95261.09;;;2.55;100.00
2397;BME280;1209;48.410;9.054;2023-04-15T05:02:08;95254.44;;;2.44;100.00
2397;BME280;1209;48.410;9.054;2023-04-15T05:04:33;95250.97;;;2.17;100.00
2397;BME280;1209;48.410;9.054;2023-04-15T05:06:59;95258.09;;;2.24;100.00
2397;BME280;1209;48.410;9.054;2023-04-15T05:09:24;95254.38;;;2.00;100.00
2397;BME280;1209;48.410;9.054;2023-04-15T05:11:50;95256.44;;;1.97;100.00
2397;BME280;1209;48.410;9.054;2023-04-15T05:14:15;95252.50;;;2.28;100.00
2397;BME280;1209;48.410;9.054;2023-04-15T05:16:41;95255.44;;;2.33;100.00
2397;BME280;1209;48.410;9.054;2023-04-15T05:19:06;95255.75;;;2.48;100.00
2397;BME280;1209;48.410;9.054;2023-04-15T05:21:32;95265.97;;;2.58;100.00
2397;BME280;1209;48.410;9.054;2023-04-15T05:23:57;95254.28;;;2.71;100.00
2397;BME280;1209;48.410;9.054;2023-04-15T05:26:22;95253.03;;;2.75;100.00
2397;BME280;1209;48.410;9.054;2023-04-15T05:28:48;95256.09;;;2.79;100.00
2397;BME280;1209;48.410;9.054;2023-04-15T05:31:14;95260.94;;;2.82;100.00
2397;BME280;1209;48.410;9.054;2023-04-15T05:33:39;95255.56;;;2.93;100.00
2397;BME280;1209;48.410;9.054;2023-04-15T05:36:05;95255.44;;;3.03;100.00
2397;BME280;1209;48.410;9.054;2023-04-15T05:38:31;95260.50;;;3.12;100.00
2397;BME280;1209;48.410;9.054;2023-04-15T05:40:56;95265.69;;;3.21;100.00
2397;BME280;1209;48.410;9.054;2023-04-15T05:43:22;95257.19;;;3.28;100.00
2397;BME280;1209;48.410;9.054;2023-04-15T05:45:47;95264.16;;;3.36;100.00
2397;BME280;1209;48.410;9.054;2023-04-15T05:48:12;95254.81;;;3.35;100.00
2397;BME280;1209;48.410;9.054;2023-04-15T05:50:40;95257.09;;;3.38;100.00
2397;BME280;1209;48.410;9.054;2023-04-15T05:53:06;95255.97;;;3.40;100.00
2397;BME280;1209;48.410;9.054;2023-04-15T05:55:32;95261.13;;;3.40;100.00
2397;BME280;1209;48.410;9.054;2023-04-15T05:57:57;95253.72;;;3.45;100.00
2397;BME280;1209;48.410;9.054;2023-04-15T06:00:22;95261.50;;;3.54;100.00
2397;BME280;1209;48.410;9.054;2023-04-15T06:02:48;95261.00;;;3.50;100.00
2397;BME280;1209;48.410;9.054;2023-04-15T06:05:13;95261.81;;;3.51;100.00
2397;BME280;1209;48.410;9.054;2023-04-15T06:07:39;95256.94;;;3.47;100.00
2397;BME280;1209;48.410;9.054;2023-04-15T06:10:05;95257.09;;;3.38;100.00
2397;BME280;1209;48.410;9.054;2023-04-15T06:12:30;95259.66;;;3.38;100.00
2397;BME280;1209;48.410;9.054;2023-04-15T06:14:56;95259.75;;;3.28;100.00
2397;BME280;1209;48.410;9.054;2023-04-15T06:17:21;95263.16;;;3.29;100.00
2397;BME280;1209;48.410;9.054;2023-04-15T06:19:46;95272.09;;;3.42;100.00
2397;BME280;1209;48.410;9.054;2023-04-15T06:22:11;95276.28;;;3.43;100.00
2397;BME280;1209;48.410;9.054;2023-04-15T06:24:37;95274.53;;;3.44;100.00
2397;BME280;1209;48.410;9.054;2023-04-15T06:27:02;95270.19;;;3.53;100.00
2397;BME280;1209;48.410;9.054;2023-04-15T06:29:28;95277.97;;;3.61;100.00
2397;BME280;1209;48.410;9.054;2023-04-15T06:31:53;95279.09;;;3.66;100.00
2397;BME280;1209;48.410;9.054;2023-04-15T06:34:20;95281.13;;;3.46;100.00
2397;BME280;1209;48.410;9.054;2023-04-15T06:36:45;95275.34;;;3.53;100.00
2397;BME280;1209;48.410;9.054;2023-04-15T06:39:11;95275.22;;;3.62;100.00
2397;BME280;1209;48.410;9.054;2023-04-15T06:41:36;95278.63;;;3.63;100.00
2397;BME280;1209;48.410;9.054;2023-04-15T06:44:01;95284.84;;;3.86;100.00
2397;BME280;1209;48.410;9.054;2023-04-15T06:46:27;95290.66;;;3.88;100.00
2397;BME280;1209;48.410;9.054;2023-04-15T06:48:52;95292.78;;;4.01;100.00
2397;BME280;1209;48.410;9.054;2023-04-15T06:51:17;95296.03;;;4.19;100.00
2397;BME280;1209;48.410;9.054;2023-04-15T06:53:43;95291.88;;;4.42;100.00
2397;BME280;1209;48.410;9.054;2023-04-15T06:56:08;95288.00;;;4.38;100.00
2397;BME280;1209;48.410;9.054;2023-04-15T06:58:34;95289.13;;;4.44;100.00
2397;BME280;1209;48.410;9.054;2023-04-15T07:00:59;95294.44;;;4.59;100.00
2397;BME280;1209;48.410;9.054;2023-04-15T07:03:24;95290.59;;;4.79;100.00
2397;BME280;1209;48.410;9.054;2023-04-15T07:05:50;95287.78;;;5.13;100.00
2397;BME280;1209;48.410;9.054;2023-04-15T07:08:15;95288.41;;;5.23;100.00
2397;BME280;1209;48.410;9.054;2023-04-15T07:10:40;95283.16;;;5.48;100.00
2397;BME280;1209;48.410;9.054;2023-04-15T07:13:06;95282.31;;;5.55;100.00
2397;BME280;1209;48.410;9.054;2023-04-15T07:15:33;95271.75;;;5.65;100.00
2397;BME280;1209;48.410;9.054;2023-04-15T07:17:58;95275.72;;;5.84;100.00
2397;BME280;1209;48.410;9.054;2023-04-15T07:20:23;95273.97;;;6.15;100.00
2397;BME280;1209;48.410;9.054;2023-04-15T07:22:49;95278.75;;;6.49;100.00
2397;BME280;1209;48.410;9.054;2023-04-15T07:25:14;95282.31;;;6.71;100.00
2397;BME280;1209;48.410;9.054;2023-04-15T07:27:40;95276.72;;;6.82;100.00
2397;BME280;1209;48.410;9.054;2023-04-15T07:30:06;95275.63;;;6.77;100.00
2397;BME280;1209;48.410;9.054;2023-04-15T07:32:31;95269.31;;;6.94;100.00
2397;BME280;1209;48.410;9.054;2023-04-15T07:34:56;95277.72;;;6.96;100.00
2397;BME280;1209;48.410;9.054;2023-04-15T07:37:22;95270.41;;;7.14;100.00
2397;BME280;1209;48.410;9.054;2023-04-15T07:39:48;95275.78;;;7.42;100.00
2397;BME280;1209;48.410;9.054;2023-04-15T07:42:13;95267.53;;;7.53;100.00
2397;BME280;1209;48.410;9.054;2023-04-15T07:44:39;95274.53;;;7.68;100.00
2397;BME280;1209;48.410;9.054;2023-04-15T07:47:04;95277.19;;;7.89;100.00
2397;BME280;1209;48.410;9.054;2023-04-15T07:49:30;95276.72;;;8.00;100.00
2397;BME280;1209;48.410;9.054;2023-04-15T07:51:56;95275.81;;;8.08;100.00
2397;BME280;1209;48.410;9.054;2023-04-15T07:54:21;95276.22;;;8.26;100.00
2397;BME280;1209;48.410;9.054;2023-04-15T07:56:47;95274.44;;;8.48;100.00
2397;BME280;1209;48.410;9.054;2023-04-15T07:59:12;95271.56;;;8.58;100.00
2397;BME280;1209;48.410;9.054;2023-04-15T08:01:39;95265.56;;;8.57;100.00
2397;BME280;1209;48.410;9.054;2023-04-15T08:04:04;95267.13;;;8.79;100.00
2397;BME280;1209;48.410;9.054;2023-04-15T08:06:30;95263.59;;;8.87;100.00
2397;BME280;1209;48.410;9.054;2023-04-15T08:08:55;95263.59;;;8.87;100.00
2397;BME280;1209;48.410;9.054;2023-04-15T08:11:21;95270.78;;;8.85;100.00
2397;BME280;1209;48.410;9.054;2023-04-15T08:13:47;95263.19;;;8.90;100.00
2397;BME280;1209;48.410;9.054;2023-04-15T08:16:20;95264.19;;;8.89;100.00
2397;BME280;1209;48.410;9.054;2023-04-15T08:18:47;95263.44;;;8.95;100.00
2397;BME280;1209;48.410;9.054;2023-04-15T08:21:13;95268.38;;;9.11;100.00
2397;BME280;1209;48.410;9.054;2023-04-15T08:23:39;95271.41;;;9.15;100.00
2397;BME280;1209;48.410;9.054;2023-04-15T08:26:04;95270.44;;;8.95;100.00
2397;BME280;1209;48.410;9.054;2023-04-15T08:28:30;95270.38;;;9.09;100.00
2397;BME280;1209;48.410;9.054;2023-04-15T08:30:55;95272.34;;;9.35;100.00
2397;BME280;1209;48.410;9.054;2023-04-15T08:33:21;95260.53;;;9.39;100.00
2397;BME280;1209;48.410;9.054;2023-04-15T08:35:47;95267.44;;;9.54;100.00
2397;BME280;1209;48.410;9.054;2023-04-15T08:38:13;95272.31;;;9.63;100.00
2397;BME280;1209;48.410;9.054;2023-04-15T08:40:43;95261.53;;;9.73;100.00
2397;BME280;1209;48.410;9.054;2023-04-15T08:43:11;95277.56;;;9.70;100.00
2397;BME280;1209;48.410;9.054;2023-04-15T08:45:38;95275.97;;;9.75;100.00
2397;BME280;1209;48.410;9.054;2023-04-15T08:48:04;95273.72;;;9.66;100.00
2397;BME280;1209;48.410;9.054;2023-04-15T08:50:31;95276.59;;;9.84;100.00
2397;BME280;1209;48.410;9.054;2023-04-15T08:52:58;95277.13;;;10.07;100.00
2397;BME280;1209;48.410;9.054;2023-04-15T08:55:26;95278.75;;;10.15;100.00
2397;BME280;1209;48.410;9.054;2023-04-15T08:57:53;95285.81;;;10.21;100.00
2397;BME280;1209;48.410;9.054;2023-04-15T09:00:20;95282.00;;;10.24;100.00
2397;BME280;1209;48.410;9.054;2023-04-15T09:02:46;95279.59;;;10.29;100.00
2397;BME280;1209;48.410;9.054;2023-04-15T09:05:11;95285.66;;;10.36;100.00
2397;BME280;1209;48.410;9.054;2023-04-15T09:07:36;95282.88;;;10.44;100.00
2397;BME280;1209;48.410;9.054;2023-04-15T09:10:03;95281.06;;;10.51;100.00
2397;BME280;1209;48.410;9.054;2023-04-15T09:12:28;95282.69;;;10.59;100.00
2397;BME280;1209;48.410;9.054;2023-04-15T09:14:53;95288.94;;;10.64;100.00
2397;BME280;1209;48.410;9.054;2023-04-15T09:17:19;95287.94;;;10.79;100.00
2397;BME280;1209;48.410;9.054;2023-04-15T09:19:45;95289.16;;;11.09;100.00
2397;BME280;1209;48.410;9.054;2023-04-15T09:22:11;95294.38;;;11.22;94.73
2397;BME280;1209;48.410;9.054;2023-04-15T09:24:38;95297.59;;;11.24;97.98
2397;BME280;1209;48.410;9.054;2023-04-15T09:27:05;95301.00;;;11.25;93.65
2397;BME280;1209;48.410;9.054;2023-04-15T09:29:31;95299.19;;;11.32;91.94
2397;BME280;1209;48.410;9.054;2023-04-15T09:32:08;95297.59;;;11.44;91.19
2397;BME280;1209;48.410;9.054;2023-04-15T09:34:34;95305.03;;;11.41;91.64
2397;BME280;1209;48.410;9.054;2023-04-15T09:37:00;95298.34;;;11.58;94.20
2397;BME280;1209;48.410;9.054;2023-04-15T09:39:26;95301.75;;;11.72;90.12
2397;BME280;1209;48.410;9.054;2023-04-15T09:42:03;95303.75;;;11.89;92.14
2397;BME280;1209;48.410;9.054;2023-04-15T09:44:29;95302.94;;;11.82;88.69
2397;BME280;1209;48.410;9.054;2023-04-15T09:46:55;95311.22;;;12.37;87.42
2397;BME280;1209;48.410;9.054;2023-04-15T09:49:20;95309.97;;;12.46;85.34
2397;BME280;1209;48.410;9.054;2023-04-15T09:51:45;95313.94;;;12.55;85.84
2397;BME280;1209;48.410;9.054;2023-04-15T09:54:11;95306.13;;;12.80;82.09
2397;BME280;1209;48.410;9.054;2023-04-15T09:56:38;95309.78;;;12.79;86.07
2397;BME280;1209;48.410;9.054;2023-04-15T09:59:06;95307.16;;;12.79;80.16
2397;BME280;1209;48.410;9.054;2023-04-15T10:01:31;95310.09;;;12.89;77.95
2397;BME280;1209;48.410;9.054;2023-04-15T10:03:58;95309.91;;;12.91;78.16
2397;BME280;1209;48.410;9.054;2023-04-15T10:06:26;95309.50;;;12.87;75.14
2397;BME280;1209;48.410;9.054;2023-04-15T10:08:53;95308.34;;;12.83;73.15
2397;BME280;1209;48.410;9.054;2023-04-15T10:11:19;95308.81;;;12.99;71.20
2397;BME280;1209;48.410;9.054;2023-04-15T10:13:48;95310.06;;;12.96;70.76
2397;BME280;1209;48.410;9.054;2023-04-15T10:16:15;95315.34;;;12.89;67.32
2397;BME280;1209;48.410;9.054;2023-04-15T10:18:44;95317.38;;;13.12;66.10
2397;BME280;1209;48.410;9.054;2023-04-15T10:21:09;95311.16;;;13.38;61.81
2397;BME280;1209;48.410;9.054;2023-04-15T10:23:35;95312.22;;;13.55;59.46
2397;BME280;1209;48.410;9.054;2023-04-15T10:26:01;95312.19;;;13.37;61.44
2397;BME280;1209;48.410;9.054;2023-04-15T10:28:28;95315.34;;;13.46;62.74
2397;BME280;1209;48.410;9.054;2023-04-15T10:30:54;95319.59;;;13.65;61.52
2397;BME280;1209;48.410;9.054;2023-04-15T10:33:22;95318.09;;;13.94;58.50
2397;BME280;1209;48.410;9.054;2023-04-15T10:35:50;95315.25;;;13.96;58.43
2397;BME280;1209;48.410;9.054;2023-04-15T10:38:35;95315.00;;;14.34;57.47
2397;BME280;1209;48.410;9.054;2023-04-15T10:41:23;95313.41;;;14.51;58.98
2397;BME280;1209;48.410;9.054;2023-04-15T10:46:22;95319.41;;;15.00;56.12
2397;BME280;1209;48.410;9.054;2023-04-15T10:48:50;95312.47;;;15.17;56.80
2397;BME280;1209;48.410;9.054;2023-04-15T10:51:15;95327.06;;;15.13;54.76
2397;BME280;1209;48.410;9.054;2023-04-15T10:53:41;95319.00;;;14.73;56.36
2397;BME280;1209;48.410;9.054;2023-04-15T10:56:08;95320.91;;;15.07;54.99
2397;BME280;1209;48.410;9.054;2023-04-15T10:58:43;95325.06;;;15.15;54.67
2397;BME280;1209;48.410;9.054;2023-04-15T11:01:09;95328.75;;;15.49;53.03
2397;BME280;1209;48.410;9.054;2023-04-15T11:03:40;95325.66;;;15.52;55.79
2397;BME280;1209;48.410;9.054;2023-04-15T11:06:06;95326.78;;;15.33;54.47
2397;BME280;1209;48.410;9.054;2023-04-15T11:08:58;95327.13;;;15.25;57.03
2397;BME280;1209;48.410;9.054;2023-04-15T11:14:32;95328.50;;;15.27;53.55
2397;BME280;1209;48.410;9.054;2023-04-15T11:16:58;95325.13;;;15.62;52.97
2397;BME280;1209;48.410;9.054;2023-04-15T11:19:23;95332.41;;;15.48;52.82
2397;BME280;1209;48.410;9.054;2023-04-15T11:21:48;95333.09;;;15.43;52.60
2397;BME280;1209;48.410;9.054;2023-04-15T11:24:23;95333.06;;;15.20;53.78
2397;BME280;1209;48.410;9.054;2023-04-15T11:26:56;95328.78;;;15.07;52.02
2397;BME280;1209;48.410;9.054;2023-04-15T11:29:21;95334.25;;;14.94;54.84
2397;BME280;1209;48.410;9.054;2023-04-15T11:31:47;95331.22;;;14.79;54.61
2397;BME280;1209;48.410;9.054;2023-04-15T11:34:21;95342.09;;;14.83;53.66
2397;BME280;1209;48.410;9.054;2023-04-15T11:36:47;95338.22;;;14.85;51.84
2397;BME280;1209;48.410;9.054;2023-04-15T11:39:12;95333.16;;;14.54;54.04
2397;BME280;1209;48.410;9.054;2023-04-15T11:41:40;95335.59;;;14.37;55.64
2397;BME280;1209;48.410;9.054;2023-04-15T11:44:17;95330.84;;;14.09;55.34
2397;BME280;1209;48.410;9.054;2023-04-15T11:46:43;95338.56;;;14.04;55.15
2397;BME280;1209;48.410;9.054;2023-04-15T11:49:08;95341.56;;;13.89;57.96
2397;BME280;1209;48.410;9.054;2023-04-15T11:51:34;95347.91;;;14.00;55.55
2397;BME280;1209;48.410;9.054;2023-04-15T11:53:59;95355.28;;;14.09;54.83
2397;BME280;1209;48.410;9.054;2023-04-15T11:56:25;95351.94;;;14.02;57.77
2397;BME280;1209;48.410;9.054;2023-04-15T11:58:55;95360.53;;;14.09;55.09
2397;BME280;1209;48.410;9.054;2023-04-15T12:01:36;95360.84;;;14.38;54.44
2397;BME280;1209;48.410;9.054;2023-04-15T12:04:13;95365.72;;;14.71;56.43
2397;BME280;1209;48.410;9.054;2023-04-15T12:06:39;95351.38;;;14.85;53.01
2397;BME280;1209;48.410;9.054;2023-04-15T12:11:47;95365.38;;;14.67;52.86
2397;BME280;1209;48.410;9.054;2023-04-15T12:14:25;95371.19;;;14.69;50.67
2397;BME280;1209;48.410;9.054;2023-04-15T12:16:54;95375.56;;;14.57;51.43
2397;BME280;1209;48.410;9.054;2023-04-15T12:19:27;95375.88;;;14.67;52.36
2397;BME280;1209;48.410;9.054;2023-04-15T12:22:03;95377.38;;;15.05;51.84
2397;BME280;1209;48.410;9.054;2023-04-15T12:24:32;95379.03;;;14.88;52.90
2397;BME280;1209;48.410;9.054;2023-04-15T12:27:01;95386.59;;;14.96;51.80
2397;BME280;1209;48.410;9.054;2023-04-15T12:29:29;95387.09;;;15.04;50.79
2397;BME280;1209;48.410;9.054;2023-04-15T12:31:58;95381.03;;;14.74;51.13
2397;BME280;1209;48.410;9.054;2023-04-15T12:34:32;95386.38;;;14.67;49.01
2397;BME280;1209;48.410;9.054;2023-04-15T12:37:00;95401.53;;;14.65;51.23
2397;BME280;1209;48.410;9.054;2023-04-15T12:39:28;95398.97;;;15.07;53.13
2397;BME280;1209;48.410;9.054;2023-04-15T12:41:53;95393.81;;;15.42;52.11
2397;BME280;1209;48.410;9.054;2023-04-15T12:44:21;95400.53;;;16.38;50.46
2397;BME280;1209;48.410;9.054;2023-04-15T12:46:46;95411.41;;;16.42;50.72
2397;BME280;1209;48.410;9.054;2023-04-15T12:49:12;95409.09;;;16.57;49.11
2397;BME280;1209;48.410;9.054;2023-04-15T12:51:40;95407.94;;;16.53;49.08
2397;BME280;1209;48.410;9.054;2023-04-15T12:54:05;95415.78;;;16.01;50.68
2397;BME280;1209;48.410;9.054;2023-04-15T12:56:31;95424.63;;;15.53;50.24
2397;BME280;1209;48.410;9.054;2023-04-15T12:58:56;95426.69;;;15.51;50.96
2397;BME280;1209;48.410;9.054;2023-04-15T13:01:21;95417.72;;;14.99;50.59
2397;BME280;1209;48.410;9.054;2023-04-15T13:03:47;95417.53;;;14.64;51.91
2397;BME280;1209;48.410;9.054;2023-04-15T13:06:12;95433.47;;;14.99;51.72
2397;BME280;1209;48.410;9.054;2023-04-15T13:08:37;95427.41;;;15.58;51.63
2397;BME280;1209;48.410;9.054;2023-04-15T13:11:03;95435.72;;;15.55;52.45
2397;BME280;1209;48.410;9.054;2023-04-15T13:13:28;95428.34;;;15.64;52.62
2397;BME280;1209;48.410;9.054;2023-04-15T13:15:56;95437.28;;;15.33;51.43
2397;BME280;1209;48.410;9.054;2023-04-15T13:18:22;95427.81;;;15.85;53.34
2397;BME280;1209;48.410;9.054;2023-04-15T13:20:48;95432.72;;;15.70;51.72
2397;BME280;1209;48.410;9.054;2023-04-15T13:23:13;95433.78;;;15.51;52.09
2397;BME280;1209;48.410;9.054;2023-04-15T13:25:39;95436.38;;;15.09;53.26